createdAt,value
2023-04-13T00:02:26.935Z,8.25
2023-04-13T00:04:54.305Z,8.34
2023-04-13T00:07:21.697Z,8.23
2023-04-13T00:09:49.588Z,8.20
2023-04-13T00:12:16.953Z,8.31
2023-04-13T00:14:44.362Z,8.32
2023-04-13T00:17:11.670Z,8.56
2023-04-13T00:19:38.864Z,8.31
2023-04-13T00:22:06.263Z,8.31
2023-04-13T00:24:33.643Z,8.19
2023-04-13T00:27:01.422Z,8.29
2023-04-13T00:29:28.680Z,8.26
2023-04-13T00:31:58.345Z,8.26
2023-04-13T00:34:25.598Z,7.90
2023-04-13T00:36:52.798Z,7.79
2023-04-13T00:39:20.188Z,7.83
2023-04-13T00:41:47.756Z,7.89
2023-04-13T00:44:14.984Z,7.85
2023-04-13T00:46:42.501Z,7.82
2023-04-13T00:49:10.194Z,7.74
2023-04-13T00:51:38.059Z,7.78
2023-04-13T00:54:06.345Z,7.75
2023-04-13T00:56:33.679Z,7.75
2023-04-13T00:59:01.045Z,7.63
2023-04-13T01:01:28.378Z,7.58
2023-04-13T01:03:55.799Z,7.41
2023-04-13T01:06:37.906Z,7.42
2023-04-13T01:09:16.592Z,7.55
2023-04-13T01:11:52.405Z,7.63
2023-04-13T01:14:44.775Z,7.60
2023-04-13T01:17:19.241Z,7.49
2023-04-13T01:20:06.901Z,7.39
2023-04-13T01:22:36.319Z,7.36
2023-04-13T01:25:31.419Z,7.28
2023-04-13T01:28:19.568Z,7.41
2023-04-13T01:30:47.609Z,7.54
2023-04-13T01:33:15.611Z,7.45
2023-04-13T01:35:44.259Z,7.49
2023-04-13T01:38:11.617Z,7.68
2023-04-13T01:40:39.025Z,7.61
2023-04-13T01:43:07.288Z,7.61
2023-04-13T01:46:12.506Z,7.45
2023-04-13T01:48:48.646Z,7.19
2023-04-13T01:51:19.613Z,6.83
2023-04-13T01:53:51.218Z,7.03
2023-04-13T01:56:19.708Z,7.00
2023-04-13T01:58:50.000Z,6.93
2023-04-13T02:01:17.593Z,6.51
2023-04-13T02:03:45.004Z,6.35
2023-04-13T02:06:13.125Z,6.50
2023-04-13T02:08:40.570Z,6.54
2023-04-13T02:11:08.432Z,6.37
2023-04-13T02:13:35.839Z,6.38
2023-04-13T02:16:04.930Z,6.40
2023-04-13T02:18:32.777Z,6.52
2023-04-13T02:21:02.871Z,6.39
2023-04-13T02:23:30.735Z,6.37
2023-04-13T02:26:00.548Z,6.44
2023-04-13T02:28:30.854Z,6.55
2023-04-13T02:30:58.137Z,6.33
2023-04-13T02:33:25.964Z,6.24
2023-04-13T02:35:53.159Z,6.42
2023-04-13T02:38:20.445Z,6.39
2023-04-13T02:40:47.953Z,6.28
2023-04-13T02:43:15.264Z,6.46
2023-04-13T02:45:42.606Z,6.26
2023-04-13T02:48:09.967Z,6.30
2023-04-13T02:50:37.205Z,6.19
2023-04-13T02:53:04.564Z,6.38
2023-04-13T02:55:31.834Z,6.38
2023-04-13T02:57:59.092Z,6.54
2023-04-13T03:00:26.784Z,6.44
2023-04-13T03:02:54.132Z,6.37
2023-04-13T03:05:21.513Z,6.18
2023-04-13T03:07:48.729Z,6.28
2023-04-13T03:10:16.334Z,6.20
2023-04-13T03:12:43.642Z,5.97
2023-04-13T03:15:11.162Z,5.98
2023-04-13T03:17:38.540Z,5.94
2023-04-13T03:20:08.091Z,5.83
2023-04-13T03:22:35.350Z,5.92
2023-04-13T03:25:02.745Z,5.96
2023-04-13T03:27:30.186Z,5.89
2023-04-13T03:29:57.470Z,5.98
2023-04-13T03:32:25.068Z,5.96
2023-04-13T03:34:55.400Z,5.94
2023-04-13T03:37:22.614Z,5.80
2023-04-13T03:39:50.466Z,5.64
2023-04-13T03:42:18.300Z,5.79
2023-04-13T03:44:46.080Z,5.57
2023-04-13T03:47:13.879Z,5.46
2023-04-13T03:49:42.251Z,5.55
2023-04-13T03:52:10.532Z,5.50
2023-04-13T03:54:38.368Z,5.59
2023-04-13T03:57:06.218Z,5.49
2023-04-13T03:59:34.399Z,5.24
2023-04-13T04:02:02.563Z,5.20
2023-04-13T04:04:30.769Z,7.64
2023-04-13T04:06:58.237Z,8.65
2023-04-13T04:09:25.793Z,10.30
2023-04-13T04:11:53.174Z,10.38
2023-04-13T04:14:20.531Z,10.65
2023-04-13T04:16:47.809Z,11.10
2023-04-13T04:19:15.333Z,12.14
2023-04-13T04:21:42.974Z,12.97
2023-04-13T04:24:10.305Z,12.13
2023-04-13T04:26:37.671Z,10.48
2023-04-13T04:29:05.060Z,10.42
2023-04-13T04:31:33.676Z,10.59
2023-04-13T04:34:02.723Z,11.58
2023-04-13T04:36:29.982Z,10.14
2023-04-13T04:38:57.668Z,8.66
2023-04-13T04:41:25.345Z,8.11
2023-04-13T04:43:52.607Z,7.81
2023-04-13T04:46:19.870Z,7.71
2023-04-13T04:48:47.136Z,7.93
2023-04-13T04:51:14.351Z,7.70
2023-04-13T04:53:41.627Z,7.66
2023-04-13T04:56:09.224Z,7.75
2023-04-13T04:58:37.075Z,7.74
2023-04-13T05:01:04.519Z,8.06
2023-04-13T05:03:32.445Z,7.83
2023-04-13T05:06:00.396Z,7.99
2023-04-13T05:08:28.120Z,7.95
2023-04-13T05:10:56.221Z,8.04
2023-04-13T05:13:23.572Z,9.01
2023-04-13T05:15:50.991Z,8.35
2023-04-13T05:18:18.447Z,8.19
2023-04-13T05:20:45.674Z,8.26
2023-04-13T05:23:13.027Z,8.24
2023-04-13T05:25:40.279Z,8.35
2023-04-13T05:28:07.649Z,8.59
2023-04-13T05:30:34.912Z,8.58
2023-04-13T05:33:05.621Z,8.94
2023-04-13T05:35:35.989Z,9.22
2023-04-13T05:38:04.533Z,9.65
2023-04-13T05:40:31.824Z,9.76
2023-04-13T05:42:59.082Z,9.99
2023-04-13T05:45:30.825Z,9.96
2023-04-13T05:47:59.779Z,10.39
2023-04-13T05:50:27.625Z,10.77
2023-04-13T05:52:55.032Z,11.39
2023-04-13T05:55:22.344Z,12.30
2023-04-13T05:57:50.674Z,12.57
2023-04-13T06:00:18.652Z,14.79
2023-04-13T06:02:46.410Z,16.56
2023-04-13T06:05:14.865Z,17.63
2023-04-13T06:07:42.447Z,17.06
2023-04-13T06:10:10.216Z,18.17
2023-04-13T06:12:37.699Z,16.75
2023-04-13T06:15:05.596Z,17.11
2023-04-13T06:17:33.366Z,16.29
2023-04-13T06:20:00.903Z,15.52
2023-04-13T06:22:28.161Z,17.40
2023-04-13T06:24:55.673Z,17.19
2023-04-13T06:27:23.263Z,15.94
2023-04-13T06:29:50.662Z,15.61
2023-04-13T06:32:18.151Z,15.95
2023-04-13T06:34:45.796Z,17.20
2023-04-13T06:37:13.042Z,15.81
2023-04-13T06:39:40.303Z,14.82
2023-04-13T06:42:07.598Z,13.66
2023-04-13T06:44:35.046Z,15.04
2023-04-13T06:47:02.337Z,15.38
2023-04-13T06:49:32.829Z,14.63
2023-04-13T06:52:00.259Z,14.41
2023-04-13T06:54:27.460Z,14.70
2023-04-13T06:56:54.825Z,14.81
2023-04-13T06:59:22.163Z,14.96
2023-04-13T07:01:49.574Z,14.29
2023-04-13T07:04:19.700Z,15.02
2023-04-13T07:06:47.058Z,16.17
2023-04-13T07:09:14.465Z,16.40
2023-04-13T07:11:42.018Z,16.04
2023-04-13T07:14:09.297Z,16.26
2023-04-13T07:16:36.580Z,16.57
2023-04-13T07:19:04.425Z,16.84
2023-04-13T07:21:31.772Z,17.12
2023-04-13T07:23:59.151Z,17.20
2023-04-13T07:26:26.457Z,17.45
2023-04-13T07:28:53.909Z,17.84
2023-04-13T07:31:21.711Z,17.77
2023-04-13T07:33:49.277Z,17.53
2023-04-13T07:36:16.640Z,18.15
2023-04-13T07:38:44.022Z,18.60
2023-04-13T07:41:11.304Z,18.65
2023-04-13T07:43:38.598Z,17.87
2023-04-13T07:46:09.594Z,17.41
2023-04-13T07:48:36.866Z,18.05
2023-04-13T07:51:04.410Z,17.98
2023-04-13T07:53:31.785Z,18.16
2023-04-13T07:55:59.068Z,18.35
2023-04-13T07:58:26.719Z,18.71
2023-04-13T08:00:54.099Z,19.32
2023-04-13T08:03:21.399Z,18.30
2023-04-13T08:05:48.802Z,17.88
2023-04-13T08:08:16.056Z,18.91
2023-04-13T08:10:43.449Z,19.79
2023-04-13T08:13:10.893Z,20.52
2023-04-13T08:15:38.170Z,20.39
2023-04-13T08:18:05.594Z,20.56
2023-04-13T08:20:32.932Z,20.73
2023-04-13T08:23:00.240Z,20.83
2023-04-13T08:25:27.547Z,21.11
2023-04-13T08:27:55.104Z,20.00
2023-04-13T08:30:22.630Z,20.03
2023-04-13T08:32:49.973Z,19.89
2023-04-13T08:35:17.469Z,20.39
2023-04-13T08:47:58.610Z,20.38
2023-04-13T08:50:26.944Z,20.77
2023-04-13T08:52:55.363Z,19.88
2023-04-13T08:55:22.783Z,20.45
2023-04-13T08:57:53.217Z,19.93
2023-04-13T09:00:25.003Z,20.96
2023-04-13T09:03:04.122Z,19.86
2023-04-13T09:05:38.351Z,19.54
2023-04-13T09:08:05.717Z,19.28
2023-04-13T09:10:34.114Z,19.18
2023-04-13T09:13:01.454Z,19.81
2023-04-13T09:15:31.012Z,20.69
2023-04-13T09:18:11.351Z,21.03
2023-04-13T09:20:39.250Z,21.24
2023-04-13T09:23:16.573Z,20.78
2023-04-13T09:25:45.119Z,20.85
2023-04-13T09:28:19.173Z,20.24
2023-04-13T09:30:47.244Z,20.55
2023-04-13T09:33:19.044Z,20.08
2023-04-13T09:35:46.377Z,19.97
2023-04-13T09:38:15.622Z,19.86
2023-04-13T09:40:49.727Z,19.20
2023-04-13T09:43:17.015Z,19.84
2023-04-13T09:45:44.586Z,19.20
2023-04-13T09:48:19.967Z,19.71
2023-04-13T09:51:01.373Z,19.99
2023-04-13T09:53:40.206Z,19.66
2023-04-13T09:56:07.892Z,19.99
2023-04-13T09:58:53.387Z,18.76
2023-04-13T10:01:21.478Z,19.01
2023-04-13T10:03:48.841Z,18.55
2023-04-13T10:06:16.265Z,18.98
2023-04-13T10:08:43.595Z,19.29
2023-04-13T10:11:13.118Z,18.61
2023-04-13T10:14:00.830Z,19.15
2023-04-13T10:16:34.270Z,19.36
2023-04-13T10:19:16.751Z,19.17
2023-04-13T10:21:47.683Z,20.04
2023-04-13T10:24:15.331Z,20.94
2023-04-13T10:26:43.127Z,20.91
2023-04-13T10:29:10.836Z,20.53
2023-04-13T10:31:39.917Z,20.29
2023-04-13T10:34:10.059Z,19.68
2023-04-13T10:36:42.069Z,20.26
2023-04-13T10:39:10.507Z,20.31
2023-04-13T10:41:38.186Z,20.23
2023-04-13T10:44:08.163Z,20.55
2023-04-13T10:46:35.892Z,19.94
2023-04-13T10:49:04.632Z,20.31
2023-04-13T10:51:42.887Z,19.19
2023-04-13T10:54:16.300Z,20.26
2023-04-13T10:56:43.649Z,20.88
2023-04-13T10:59:11.211Z,20.07
2023-04-13T11:01:38.586Z,19.94
2023-04-13T11:04:08.962Z,19.89
2023-04-13T11:06:38.770Z,20.50
2023-04-13T11:09:07.079Z,20.97
2023-04-13T11:11:36.632Z,20.68
2023-04-13T11:14:04.085Z,20.53
2023-04-13T11:16:31.639Z,20.70
2023-04-13T11:19:03.831Z,20.77
2023-04-13T11:21:31.312Z,21.02
2023-04-13T11:23:58.759Z,20.97
2023-04-13T11:26:36.147Z,20.60
2023-04-13T11:29:04.626Z,20.52
2023-04-13T11:31:40.083Z,20.99
2023-04-13T11:34:08.092Z,20.68
2023-04-13T11:36:35.704Z,20.27
2023-04-13T11:39:03.157Z,20.34
2023-04-13T11:41:30.637Z,20.01
2023-04-13T11:44:00.835Z,20.33
2023-04-13T11:46:28.897Z,20.68
2023-04-13T11:48:56.893Z,20.87
2023-04-13T11:51:24.902Z,21.00
2023-04-13T11:53:53.447Z,20.59
2023-04-13T11:56:21.664Z,20.38
2023-04-13T11:58:53.229Z,20.32
2023-04-13T12:01:27.093Z,20.61
2023-04-13T12:04:15.694Z,20.39
2023-04-13T12:06:46.197Z,20.62
2023-04-13T12:09:17.675Z,20.78
2023-04-13T12:11:51.910Z,20.22
2023-04-13T12:19:23.838Z,20.97
2023-04-13T12:21:53.932Z,20.88
2023-04-13T12:24:32.735Z,20.90
2023-04-13T12:29:38.589Z,20.72
2023-04-13T12:32:15.232Z,20.49
2023-04-13T12:34:43.784Z,20.27
2023-04-13T12:37:17.674Z,20.50
2023-04-13T12:39:45.077Z,20.51
2023-04-13T12:42:12.477Z,20.50
2023-04-13T12:44:39.828Z,20.56
2023-04-13T12:47:07.179Z,20.01
2023-04-13T12:49:34.549Z,20.29
2023-04-13T12:52:01.789Z,19.86
2023-04-13T12:54:29.104Z,20.23
2023-04-13T12:56:56.427Z,20.54
2023-04-13T12:59:23.968Z,20.72
2023-04-13T13:01:51.424Z,21.03
2023-04-13T13:04:18.891Z,21.18
2023-04-13T13:06:47.647Z,20.91
2023-04-13T13:09:15.085Z,20.05
2023-04-13T13:11:42.913Z,20.71
2023-04-13T13:14:11.334Z,20.79
2023-04-13T13:16:39.123Z,20.32
2023-04-13T13:19:06.652Z,19.90
2023-04-13T13:21:34.249Z,19.37
2023-04-13T13:24:01.528Z,19.71
2023-04-13T13:26:39.842Z,19.76
2023-04-13T13:29:16.291Z,20.00
2023-04-13T13:31:44.045Z,20.02
2023-04-13T13:34:11.661Z,20.20
2023-04-13T13:36:39.096Z,20.10
2023-04-13T13:39:09.306Z,20.11
2023-04-13T13:41:36.900Z,20.31
2023-04-13T13:44:04.182Z,19.87
2023-04-13T13:46:32.156Z,19.82
2023-04-13T13:48:59.906Z,20.10
2023-04-13T13:51:27.740Z,19.91
2023-04-13T13:53:55.059Z,20.29
2023-04-13T13:56:23.236Z,20.40
2023-04-13T13:58:50.879Z,20.51
2023-04-13T14:01:18.318Z,20.74
2023-04-13T14:03:45.891Z,20.50
2023-04-13T14:06:13.267Z,20.37
2023-04-13T14:08:40.603Z,19.91
2023-04-13T14:11:09.812Z,20.07
2023-04-13T14:13:37.271Z,20.17
2023-04-13T14:16:05.267Z,20.18
2023-04-13T14:18:33.072Z,19.81
2023-04-13T14:21:00.478Z,19.67
2023-04-13T14:23:27.899Z,20.08
2023-04-13T14:25:55.347Z,19.94
2023-04-13T14:28:22.654Z,20.01
2023-04-13T14:30:50.565Z,20.12
2023-04-13T14:33:17.892Z,20.32
2023-04-13T14:35:45.178Z,20.30
2023-04-13T14:38:12.574Z,20.05
2023-04-13T14:40:39.859Z,19.66
2023-04-13T14:43:07.123Z,19.53
2023-04-13T14:45:34.403Z,19.56
2023-04-13T14:48:01.858Z,19.62
2023-04-13T14:50:29.269Z,19.76
2023-04-13T14:52:56.733Z,19.75
2023-04-13T14:55:24.287Z,19.87
2023-04-13T14:57:51.775Z,19.61
2023-04-13T15:00:19.700Z,19.87
2023-04-13T15:02:51.256Z,20.05
2023-04-13T15:05:19.156Z,20.13
2023-04-13T15:07:46.565Z,19.78
2023-04-13T15:10:13.970Z,19.66
2023-04-13T15:12:41.201Z,19.53
2023-04-13T15:15:09.216Z,19.41
2023-04-13T15:17:36.616Z,19.31
2023-04-13T15:20:04.221Z,19.49
2023-04-13T15:22:31.607Z,19.30
2023-04-13T15:25:00.338Z,19.20
2023-04-13T15:27:27.709Z,19.32
2023-04-13T15:29:58.910Z,19.01
2023-04-13T15:32:29.537Z,18.93
2023-04-13T15:34:57.100Z,18.95
2023-04-13T15:37:24.498Z,18.79
2023-04-13T15:39:51.849Z,18.82
2023-04-13T15:42:19.108Z,18.94
2023-04-13T15:44:46.906Z,18.71
2023-04-13T15:47:14.248Z,18.65
2023-04-13T15:49:41.549Z,18.59
2023-04-13T15:52:08.968Z,18.73
2023-04-13T15:54:36.236Z,18.61
2023-04-13T15:57:03.698Z,18.68
2023-04-13T15:59:31.109Z,18.39
2023-04-13T16:01:58.775Z,18.43
2023-04-13T16:04:26.597Z,18.27
2023-04-13T16:07:09.121Z,18.19
2023-04-13T16:09:43.668Z,18.15
2023-04-13T16:12:11.501Z,18.28
2023-04-13T16:14:39.405Z,18.17
2023-04-13T16:17:10.799Z,18.31
2023-04-13T16:19:38.186Z,18.12
2023-04-13T16:22:06.222Z,18.13
2023-04-13T16:24:39.877Z,18.03
2023-04-13T16:27:08.116Z,17.99
2023-04-13T16:29:35.540Z,17.87
2023-04-13T16:32:03.018Z,17.90
2023-04-13T16:34:31.701Z,17.81
2023-04-13T16:36:59.029Z,17.71
2023-04-13T16:39:26.707Z,17.70
2023-04-13T16:41:54.160Z,17.66
2023-04-13T16:44:21.475Z,17.61
2023-04-13T16:46:49.233Z,17.52
2023-04-13T16:49:16.781Z,17.46
2023-04-13T16:51:45.041Z,17.51
2023-04-13T16:54:12.344Z,17.33
2023-04-13T16:56:39.765Z,17.55
2023-04-13T16:59:07.079Z,17.41
2023-04-13T17:01:35.604Z,17.33
2023-04-13T17:04:04.496Z,17.28
2023-04-13T17:06:35.925Z,17.22
2023-04-13T17:09:03.936Z,17.17
2023-04-13T17:11:32.030Z,17.07
2023-04-13T17:13:59.333Z,17.02
2023-04-13T17:16:26.611Z,16.96
2023-04-13T17:18:54.025Z,16.74
2023-04-13T17:21:21.423Z,16.70
2023-04-13T17:23:48.703Z,16.61
2023-04-13T17:26:16.045Z,16.56
2023-04-13T17:28:43.496Z,16.41
2023-04-13T17:31:10.869Z,16.33
2023-04-13T17:33:38.300Z,16.53
2023-04-13T17:36:05.804Z,16.30
2023-04-13T17:38:33.172Z,16.29
2023-04-13T17:41:18.338Z,16.16
2023-04-13T17:43:46.977Z,16.17
2023-04-13T17:46:14.401Z,16.09
2023-04-13T17:48:41.816Z,15.98
2023-04-13T17:51:11.017Z,16.03
2023-04-13T17:53:38.806Z,16.00
2023-04-13T17:56:06.939Z,15.93
2023-04-13T17:58:34.521Z,15.92
2023-04-13T18:01:11.565Z,16.85
2023-04-13T18:03:39.382Z,16.17
2023-04-13T18:06:07.293Z,15.87
2023-04-13T18:08:34.698Z,15.84
2023-04-13T18:11:02.586Z,15.62
2023-04-13T18:13:30.187Z,15.74
2023-04-13T18:15:57.715Z,15.52
2023-04-13T18:18:25.109Z,15.55
2023-04-13T18:20:52.774Z,15.51
2023-04-13T18:23:21.339Z,15.46
2023-04-13T18:25:52.066Z,15.41
2023-04-13T18:28:19.800Z,15.38
2023-04-13T18:30:47.148Z,15.41
2023-04-13T18:33:14.937Z,15.52
2023-04-13T18:35:44.952Z,15.35
2023-04-13T18:38:12.401Z,15.40
2023-04-13T18:40:39.668Z,15.30
2023-04-13T18:43:07.653Z,17.13
2023-04-13T18:45:35.043Z,16.04
2023-04-13T18:48:02.813Z,15.57
2023-04-13T18:50:30.209Z,15.47
2023-04-13T18:52:57.639Z,15.52
2023-04-13T18:55:24.951Z,15.34
2023-04-13T18:57:52.333Z,15.33
2023-04-13T19:00:20.344Z,15.20
2023-04-13T19:02:49.852Z,15.42
2023-04-13T19:05:17.467Z,15.26
2023-04-13T19:08:00.514Z,15.06
2023-04-13T19:10:28.379Z,15.07
2023-04-13T19:12:55.808Z,15.18
2023-04-13T19:15:23.833Z,15.12
2023-04-13T19:17:52.253Z,15.05
2023-04-13T19:20:25.492Z,15.03
2023-04-13T19:22:52.855Z,15.13
2023-04-13T19:25:20.335Z,15.17
2023-04-13T19:27:48.678Z,15.18
2023-04-13T19:30:16.943Z,14.86
2023-04-13T19:32:46.590Z,15.12
2023-04-13T19:35:15.540Z,14.98
2023-04-13T19:37:43.085Z,14.93
2023-04-13T19:40:10.966Z,14.89
2023-04-13T19:42:38.685Z,14.96
2023-04-13T19:45:06.435Z,14.88
2023-04-13T19:47:35.819Z,14.66
2023-04-13T19:50:04.340Z,14.64
2023-04-13T19:52:31.659Z,14.75
2023-04-13T19:54:59.002Z,14.79
2023-04-13T19:57:26.879Z,14.67
2023-04-13T19:59:54.742Z,14.67
2023-04-13T20:02:22.302Z,14.60
2023-04-13T20:04:49.714Z,14.52
2023-04-13T20:07:19.650Z,14.63
2023-04-13T20:09:47.022Z,14.55
2023-04-13T20:12:14.430Z,14.55
2023-04-13T20:14:44.897Z,14.60
2023-04-13T20:17:12.525Z,14.44
2023-04-13T20:19:39.871Z,14.55
2023-04-13T20:22:07.188Z,14.49
2023-04-13T20:24:34.500Z,14.45
2023-04-13T20:27:01.840Z,14.35
2023-04-13T20:29:29.192Z,14.32
2023-04-13T20:31:56.582Z,14.43
2023-04-13T20:34:23.904Z,14.35
2023-04-13T20:36:51.258Z,14.18
2023-04-13T20:39:18.806Z,14.22
2023-04-13T20:41:46.106Z,14.03
2023-04-13T20:44:13.415Z,14.15
2023-04-13T20:46:40.814Z,14.00
2023-04-13T20:49:08.162Z,13.86
2023-04-13T20:51:35.482Z,13.99
2023-04-13T20:54:03.300Z,13.90
2023-04-13T20:56:30.703Z,13.86
2023-04-13T20:58:58.305Z,13.83
2023-04-13T21:01:25.839Z,13.73
2023-04-13T21:04:08.313Z,13.69
2023-04-13T21:06:49.036Z,13.68
2023-04-13T21:09:25.336Z,13.51
2023-04-13T21:11:52.706Z,13.48
2023-04-13T21:14:20.440Z,13.61
2023-04-13T21:16:47.763Z,13.56
2023-04-13T21:19:15.134Z,13.43
2023-04-13T21:21:42.666Z,13.33
2023-04-13T21:24:10.180Z,13.57
2023-04-13T21:26:37.765Z,13.37
2023-04-13T21:29:05.070Z,13.36
2023-04-13T21:31:32.420Z,13.28
2023-04-13T21:34:00.032Z,13.34
2023-04-13T21:38:58.151Z,13.31
2023-04-13T21:41:25.601Z,13.39
2023-04-13T21:43:52.895Z,13.34
2023-04-13T21:46:20.581Z,13.27
2023-04-13T21:48:47.895Z,13.21
2023-04-13T21:51:15.255Z,13.16
2023-04-13T21:53:42.562Z,13.24
2023-04-13T21:56:09.846Z,13.01
2023-04-13T21:58:39.301Z,13.02
2023-04-13T22:01:07.453Z,12.93
2023-04-13T22:03:36.545Z,13.01
2023-04-13T22:06:10.325Z,12.92
2023-04-13T22:08:38.598Z,12.89
2023-04-13T22:11:06.602Z,12.97
2023-04-13T22:13:34.089Z,13.00
2023-04-13T22:16:01.438Z,12.94
2023-04-13T22:18:28.740Z,12.77
2023-04-13T22:20:58.314Z,12.74
2023-04-13T22:23:26.280Z,12.60
2023-04-13T22:25:55.524Z,12.65
2023-04-13T22:28:22.986Z,12.61
2023-04-13T22:30:50.706Z,12.53
2023-04-13T22:33:18.856Z,12.50
2023-04-13T22:35:46.177Z,12.37
2023-04-13T22:38:13.603Z,12.18
2023-04-13T22:40:41.193Z,12.05
2023-04-13T22:43:08.467Z,12.12
2023-04-13T22:45:35.787Z,11.93
2023-04-13T22:48:03.504Z,11.98
2023-04-13T22:50:31.395Z,11.93
2023-04-13T22:52:58.712Z,11.98
2023-04-13T22:55:25.993Z,11.95
2023-04-13T22:57:53.323Z,11.93
2023-04-13T23:00:20.779Z,11.91
2023-04-13T23:02:48.596Z,11.94
2023-04-13T23:05:19.398Z,11.96
2023-04-13T23:07:46.680Z,11.87
2023-04-13T23:10:16.491Z,11.92
2023-04-13T23:12:44.757Z,11.74
2023-04-13T23:15:13.352Z,11.63
2023-04-13T23:17:40.622Z,11.55
2023-04-13T23:20:08.293Z,11.42
2023-04-13T23:22:35.656Z,11.48
2023-04-13T23:25:02.971Z,11.61
2023-04-13T23:27:30.265Z,11.45
2023-04-13T23:29:57.940Z,11.42
2023-04-13T23:32:25.467Z,11.42
2023-04-13T23:34:53.297Z,11.45
2023-04-13T23:37:20.498Z,11.26
2023-04-13T23:39:47.810Z,11.27
2023-04-13T23:42:15.065Z,11.23
2023-04-13T23:44:42.899Z,11.37
2023-04-13T23:47:12.696Z,11.35
2023-04-13T23:49:40.068Z,11.42
2023-04-13T23:52:09.306Z,11.33
2023-04-13T23:54:36.733Z,11.40
2023-04-13T23:57:04.106Z,11.43
2023-04-13T23:59:31.454Z,11.49
